Air Navigation Services of Czech Republic
Airport: LKCR Updated:  21.07.2024 01:00:40  UTC
 METAR LKCR 21.07. 01:00 ...
METAR LKCR 210100Z AUTO 00000KT CAVOK 16/13 Q1011=